Terminal Aerodrome Forecast
Issued by NWS Charleston, WV

Current Version | Previous Version | Graphics & Text | Print | Product List | Glossary On
Versions: 1 2 3 4 5 6 7 8 9 10 11 12 13 14 15 16 17 18 19 20 21 22 23 24 25 26 27 28 29 30
000
FTUS41 KRLX 050549
TAFEKN
TAF
KEKN 050549Z 0506/0606 18006KT 3SM -RA OVC025
      TEMPO 0506/0509 6SM -RA BR OVC015
     FM050900 25005KT 6SM -RA OVC010
      TEMPO 0509/0511 4SM -RA OVC003
     FM051100 27006KT 5SM -DZ BR OVC008
     FM051400 29006KT P6SM OVC010
     FM051700 29005KT P6SM BKN015
     FM051900 28004KT P6SM BKN035=

USA.gov is the U.S. government's official web portal to all federal, state and local government web resources and services.